Tocumwal, New South Wales

2:10 PM AEDT on April 01, 2015 (GMT +1100)
Wangaratta | | Change Station
CLOSE
Current Station
Airport
Location: Wangaratta,
Elevation: 502 ft
Nearby Weather Stations

Elev 502 ft 36.42 °S, 146.31 °E | Updated 10 minutes ago

Mostly Cloudy
Mostly Cloudy
81 °F
Feels Like 81 °F
N
13
Wind Variable Wind from North
Gusts 18 mph

Today
High -- | Low -- °F
--% Chance of Precip.
Yesterday
High -- | Low -- °F
Precip. -- in
7:30 AM 7:12 PM
Waxing Gibbous, 90% visible
Pressure 30.06 in
Visibility -9999.0 miles
Clouds
Dew Point 50 °F
Humidity 34%
Rainfall 0.00 in
Snow Depth Not available.
UV Not available.
Pollen Not available.
Air Quality Not available.
Flu Activity Not available.
METAR YWGT 010300Z AUTO 36011KT //// // ////// 27/10 Q1018

More Conditions Fewer Conditions

Pressure 30.06 in
Visibility -9999.0 miles
Clouds
Dew Point 50 °F
Humidity 34%
Rainfall 0.00 in
Snow Depth Not available.
UV Not available.
Pollen Not available.
Air Quality Not available.
Flu Activity Not available.
METAR YWGT 010300Z AUTO 36011KT //// // ////// 27/10 Q1018

More Conditions Fewer Conditions

10-Day Weather Forecast

Almanac

Astronomy

Apr. 01, 2015 Rise Set
Actual Time
Civil Twilight
Nautical Twilight
Astronomical Twilight
Moon
Length of Visible Light
Length of Day
Tomorrow will be .
, % of the Moon is Illuminated

Today's Extremes

Country Highs Country Lows

Community

WunderPhotos

Upload Photos

1,809,889 photos uploaded!

WunderBlogs® & News

Nearby

Air Quality

  Air Quality AQ Index Pollutant
Not available.

Snow Depth

Station Depth Elevation

Earthquake Activity

City Distance Mag. Time & Date
Minimum magnitude displayed is 2.5.

Coastal Water Temperatures

Place Temperature

Stations

Nearby Weather Stations

Station Location Temp. Windchill Dew Point Humidity Wind Precip. Elev Updated Type